Guilford, Connecticut
Current Conditions -  °F | °C
As of 2:53 AM on Wednesday 22 Oct 2014 (Local Time) from KHVN Reporting Station
Clear Clear  
Wind Chill: 55°   Ceiling: Unl
Heat Index: 55°   Visibility: 10mi
Dew Point: 52°   Wind: 12mph
Humidity: 89%   Direction: 20°NNE
Pressure: 29.91"   Gusts: NA
Location:  41.29°N, 72.68°W
Report Text: KHVN 220653Z AUTO 02010KT 10SM CLR 13/11 A2991 RMK AO2 SLP126 T01280111
Loading
Personal Weather Stations






























Interactive Weather Map
Tropical Storm Tracking
New forecast layout! Learn more

10-Day Weather Forecast

Advertisements
Track Severe Weather on mobile